createdAt,value
2023-03-27T00:02:24.760Z,11.70
2023-03-27T00:04:54.825Z,11.20
2023-03-27T00:07:22.916Z,11.50
2023-03-27T00:09:51.346Z,10.30
2023-03-27T00:12:19.004Z,9.30
2023-03-27T00:14:46.768Z,9.40
2023-03-27T00:17:14.434Z,10.70
2023-03-27T00:19:42.513Z,10.90
2023-03-27T00:22:10.980Z,9.70
2023-03-27T00:24:38.644Z,9.30
2023-03-27T00:27:06.815Z,9.20
2023-03-27T00:29:34.789Z,9.50
2023-03-27T00:32:02.554Z,9.30
2023-03-27T00:34:31.550Z,8.40
2023-03-27T00:36:59.306Z,9.40
2023-03-27T00:39:28.095Z,8.90
2023-03-27T00:41:56.381Z,9.10
2023-03-27T00:44:24.139Z,8.20
2023-03-27T00:46:52.001Z,8.20
2023-03-27T00:49:20.073Z,8.60
2023-03-27T00:51:48.348Z,7.80
2023-03-27T00:54:16.429Z,7.20
2023-03-27T00:56:44.134Z,8.30
2023-03-27T00:59:12.255Z,9.70
2023-03-27T01:01:40.276Z,9.40
2023-03-27T01:04:08.821Z,8.90
2023-03-27T01:06:36.571Z,8.60
2023-03-27T01:09:04.840Z,8.30
2023-03-27T01:11:32.611Z,7.80
2023-03-27T01:14:00.476Z,9.00
2023-03-27T01:16:28.140Z,9.30
2023-03-27T01:18:56.006Z,8.20
2023-03-27T01:21:23.766Z,8.30
2023-03-27T01:24:00.444Z,8.00
2023-03-27T01:26:36.204Z,7.70
2023-03-27T01:29:05.079Z,8.90
2023-03-27T01:31:32.961Z,8.70
2023-03-27T01:34:01.019Z,8.50
2023-03-27T01:36:28.681Z,7.80
2023-03-27T01:38:56.341Z,7.30
2023-03-27T01:41:24.005Z,8.00
2023-03-27T01:43:51.768Z,7.70
2023-03-27T01:46:19.492Z,7.50
2023-03-27T01:48:47.296Z,7.30
2023-03-27T01:51:14.959Z,7.40
2023-03-27T01:53:42.620Z,8.20
2023-03-27T01:56:10.389Z,7.40
2023-03-27T01:58:38.153Z,6.80
2023-03-27T02:01:06.504Z,7.50
2023-03-27T02:03:35.004Z,7.90
2023-03-27T02:06:02.772Z,7.60
2023-03-27T02:08:30.541Z,7.80
2023-03-27T02:10:58.484Z,8.00
2023-03-27T02:13:26.375Z,8.80
2023-03-27T02:15:54.172Z,8.80
2023-03-27T02:18:21.899Z,8.20
2023-03-27T02:20:49.663Z,8.50
2023-03-27T02:23:17.326Z,8.80
2023-03-27T02:25:45.194Z,7.70
2023-03-27T02:28:13.067Z,8.30
2023-03-27T02:30:40.823Z,7.50
2023-03-27T02:33:09.261Z,8.70
2023-03-27T02:35:37.097Z,7.90
2023-03-27T02:38:04.857Z,8.40
2023-03-27T02:40:32.714Z,8.00
2023-03-27T02:43:08.242Z,8.30
2023-03-27T02:45:35.943Z,8.70
2023-03-27T02:48:03.735Z,8.20
2023-03-27T02:50:31.647Z,8.50
2023-03-27T02:52:59.306Z,7.70
2023-03-27T02:55:26.968Z,7.80
2023-03-27T02:57:54.731Z,8.40
2023-03-27T03:00:25.718Z,9.00
2023-03-27T03:02:53.701Z,7.80
2023-03-27T03:05:22.333Z,8.60
2023-03-27T03:07:49.960Z,8.60
2023-03-27T03:10:17.664Z,8.90
2023-03-27T03:12:45.313Z,9.10
2023-03-27T03:15:12.969Z,8.40
2023-03-27T03:17:40.691Z,7.90
2023-03-27T03:20:09.942Z,9.00
2023-03-27T03:22:40.169Z,9.20
2023-03-27T03:25:07.920Z,9.90
2023-03-27T03:27:35.580Z,10.60
2023-03-27T03:30:04.680Z,11.10
2023-03-27T03:32:34.306Z,10.40
2023-03-27T03:35:02.252Z,10.70
2023-03-27T03:37:30.222Z,12.30
2023-03-27T03:39:58.297Z,10.40
2023-03-27T03:42:25.962Z,10.20
2023-03-27T03:44:53.719Z,10.50
2023-03-27T03:47:21.520Z,11.30
2023-03-27T03:49:49.246Z,11.30
2023-03-27T03:52:16.907Z,10.20
2023-03-27T03:54:46.680Z,10.60
2023-03-27T03:57:14.817Z,10.20
2023-03-27T03:59:42.961Z,9.70
2023-03-27T04:02:12.480Z,9.70
2023-03-27T04:04:40.434Z,9.00
2023-03-27T04:07:09.838Z,9.90
2023-03-27T04:09:37.813Z,9.60
2023-03-27T04:12:05.673Z,9.70
2023-03-27T04:14:33.332Z,9.10
2023-03-27T04:17:01.413Z,9.30
2023-03-27T04:19:29.105Z,8.80
2023-03-27T04:21:58.368Z,8.80
2023-03-27T04:24:26.005Z,10.60
2023-03-27T04:26:53.689Z,8.90
2023-03-27T04:29:22.520Z,10.40
2023-03-27T04:31:50.780Z,9.40
2023-03-27T04:34:20.670Z,9.20
2023-03-27T04:36:48.442Z,9.20
2023-03-27T04:39:17.534Z,9.30
2023-03-27T04:41:51.753Z,9.10
2023-03-27T04:44:19.514Z,9.80
2023-03-27T04:46:50.400Z,9.90
2023-03-27T04:49:19.345Z,11.70
2023-03-27T04:51:47.013Z,11.10
2023-03-27T04:54:14.670Z,13.00
2023-03-27T04:56:42.360Z,12.30
2023-03-27T04:59:09.996Z,12.40
2023-03-27T05:01:37.812Z,12.50
2023-03-27T05:04:05.822Z,12.60
2023-03-27T05:06:33.588Z,12.70
2023-03-27T05:09:01.668Z,13.20
2023-03-27T05:11:29.423Z,16.20
2023-03-27T05:13:57.096Z,13.80
2023-03-27T05:16:26.797Z,16.00
2023-03-27T05:18:54.866Z,16.00
2023-03-27T05:21:22.636Z,15.50
2023-03-27T05:23:50.410Z,12.20
2023-03-27T05:26:19.383Z,12.80
2023-03-27T05:28:47.045Z,11.20
2023-03-27T05:31:14.733Z,12.00
2023-03-27T05:33:42.470Z,14.00
2023-03-27T05:36:10.145Z,13.10
2023-03-27T05:38:38.202Z,13.40
2023-03-27T05:41:06.377Z,14.00
2023-03-27T05:43:34.047Z,27.50
2023-03-27T05:46:01.878Z,23.30
2023-03-27T05:48:29.669Z,15.50
2023-03-27T05:50:57.602Z,18.10
2023-03-27T05:53:28.359Z,15.60
2023-03-27T05:56:02.325Z,12.70
2023-03-27T05:58:31.783Z,12.40
2023-03-27T06:00:59.754Z,14.30
2023-03-27T06:03:30.592Z,14.10
2023-03-27T06:06:01.308Z,12.40
2023-03-27T06:08:29.914Z,11.90
2023-03-27T06:10:57.879Z,12.00
2023-03-27T06:13:25.948Z,12.40
2023-03-27T06:15:53.733Z,11.50
2023-03-27T06:18:21.785Z,13.20
2023-03-27T06:20:49.551Z,12.40
2023-03-27T06:23:17.527Z,12.50
2023-03-27T06:25:47.514Z,11.50
2023-03-27T06:28:15.429Z,12.20
2023-03-27T06:30:43.166Z,13.90
2023-03-27T06:33:12.372Z,13.80
2023-03-27T06:35:40.239Z,12.20
2023-03-27T06:38:07.997Z,13.40
2023-03-27T06:40:36.783Z,10.80
2023-03-27T06:43:04.442Z,9.40
2023-03-27T06:45:32.627Z,10.20
2023-03-27T06:48:18.831Z,11.30
2023-03-27T06:50:48.115Z,12.00
2023-03-27T06:55:48.248Z,11.50
2023-03-27T06:58:19.138Z,11.10
2023-03-27T07:00:47.273Z,10.00
2023-03-27T07:03:15.441Z,9.80
2023-03-27T07:05:43.312Z,11.20
2023-03-27T07:08:22.585Z,11.60
2023-03-27T07:11:03.724Z,9.20
2023-03-27T07:13:38.350Z,9.90
2023-03-27T07:16:06.399Z,10.20
2023-03-27T07:18:34.267Z,9.60
2023-03-27T07:21:01.882Z,8.20
2023-03-27T07:23:30.304Z,7.60
2023-03-27T07:25:58.298Z,7.00
2023-03-27T07:28:26.459Z,6.90
2023-03-27T07:30:54.241Z,6.00
2023-03-27T07:33:22.419Z,5.50
2023-03-27T07:35:50.268Z,6.00
2023-03-27T07:38:18.641Z,6.30
2023-03-27T07:40:46.692Z,12.60
2023-03-27T07:43:14.575Z,7.30
2023-03-27T07:45:42.399Z,7.10
2023-03-27T07:48:10.620Z,6.60
2023-03-27T07:50:38.384Z,6.40
2023-03-27T07:53:08.803Z,6.10
2023-03-27T07:55:41.887Z,6.20
2023-03-27T07:58:09.607Z,6.10
2023-03-27T08:00:38.956Z,6.60
2023-03-27T08:03:07.296Z,6.20
2023-03-27T08:05:35.311Z,6.80
2023-03-27T08:08:03.079Z,8.70
2023-03-27T08:10:30.754Z,8.20
2023-03-27T08:12:58.393Z,8.50
2023-03-27T08:15:26.469Z,8.80
2023-03-27T08:17:55.402Z,8.00
2023-03-27T08:20:24.101Z,9.10
2023-03-27T08:22:52.934Z,9.70
2023-03-27T08:25:22.888Z,10.10
2023-03-27T08:27:50.927Z,10.50
2023-03-27T08:30:19.397Z,9.90
2023-03-27T08:32:47.200Z,9.80
2023-03-27T08:35:14.933Z,10.30
2023-03-27T08:37:44.129Z,11.50
2023-03-27T08:40:14.451Z,12.60
2023-03-27T08:42:42.415Z,11.90
2023-03-27T08:45:10.183Z,11.90
2023-03-27T08:47:37.866Z,12.50
2023-03-27T08:50:05.919Z,12.00
2023-03-27T08:52:33.577Z,10.20
2023-03-27T08:55:01.544Z,12.10
2023-03-27T08:57:31.767Z,10.90
2023-03-27T08:59:59.747Z,9.20
2023-03-27T09:02:27.607Z,7.90
2023-03-27T09:04:55.469Z,7.70
2023-03-27T09:07:23.132Z,7.20
2023-03-27T09:09:52.945Z,7.30
2023-03-27T09:12:20.916Z,7.00
2023-03-27T09:14:48.880Z,6.80
2023-03-27T09:17:16.544Z,8.50
2023-03-27T09:19:44.307Z,9.30
2023-03-27T09:22:11.981Z,9.00
2023-03-27T09:24:39.961Z,8.70
2023-03-27T09:27:08.421Z,7.10
2023-03-27T09:29:36.085Z,6.70
2023-03-27T09:32:04.265Z,7.10
2023-03-27T09:34:34.795Z,6.40
2023-03-27T09:37:02.849Z,5.60
2023-03-27T09:39:32.726Z,5.90
2023-03-27T09:42:00.746Z,5.80
2023-03-27T09:44:34.575Z,6.50
2023-03-27T09:47:02.740Z,6.50
2023-03-27T09:49:30.888Z,6.70
2023-03-27T09:52:00.322Z,6.30
2023-03-27T09:54:32.267Z,6.10
2023-03-27T09:56:59.959Z,4.40
2023-03-27T09:59:27.886Z,5.20
2023-03-27T10:01:55.552Z,4.70
2023-03-27T10:04:23.631Z,5.20
2023-03-27T10:06:52.416Z,4.00
2023-03-27T10:09:20.601Z,5.00
2023-03-27T10:11:48.347Z,4.20
2023-03-27T10:14:16.426Z,4.30
2023-03-27T10:16:46.296Z,3.90
2023-03-27T10:19:14.101Z,4.60
2023-03-27T10:21:44.830Z,4.30
2023-03-27T10:24:12.495Z,4.20
2023-03-27T10:26:40.168Z,3.60
2023-03-27T10:29:07.919Z,3.60
2023-03-27T10:31:37.941Z,3.70
2023-03-27T10:34:06.227Z,3.60
2023-03-27T10:36:34.810Z,3.80
2023-03-27T10:39:03.174Z,3.30
2023-03-27T10:41:30.943Z,3.70
2023-03-27T10:43:58.614Z,3.00
2023-03-27T10:46:26.895Z,3.30
2023-03-27T10:48:54.852Z,3.60
2023-03-27T10:51:23.695Z,3.90
2023-03-27T10:53:52.851Z,3.90
2023-03-27T10:56:20.797Z,3.90
2023-03-27T10:58:48.563Z,5.00
2023-03-27T11:01:16.679Z,5.90
2023-03-27T11:03:44.611Z,4.40
2023-03-27T11:06:12.426Z,5.50
2023-03-27T11:08:40.544Z,3.50
2023-03-27T11:11:08.311Z,4.30
2023-03-27T11:13:35.962Z,5.20
2023-03-27T11:16:04.024Z,5.10
2023-03-27T11:18:32.410Z,5.20
2023-03-27T11:21:00.174Z,3.30
2023-03-27T11:23:28.859Z,3.50
2023-03-27T11:25:59.992Z,3.70
2023-03-27T11:28:27.766Z,3.90
2023-03-27T11:30:56.344Z,3.20
2023-03-27T11:33:24.624Z,4.40
2023-03-27T11:35:52.331Z,5.20
2023-03-27T11:38:20.035Z,4.10
2023-03-27T11:40:48.022Z,3.00
2023-03-27T11:43:15.895Z,5.50
2023-03-27T11:45:43.551Z,7.30
2023-03-27T11:48:11.347Z,6.90
2023-03-27T11:50:39.220Z,6.20
2023-03-27T11:53:07.459Z,9.10
2023-03-27T11:55:35.122Z,7.10
2023-03-27T11:58:03.529Z,7.00
2023-03-27T12:00:31.369Z,7.20
2023-03-27T12:02:59.165Z,7.80
2023-03-27T12:05:26.893Z,7.60
2023-03-27T12:07:54.760Z,8.50
2023-03-27T12:10:28.397Z,7.90
2023-03-27T12:12:56.638Z,7.70
2023-03-27T12:15:24.399Z,9.30
2023-03-27T12:17:52.966Z,7.00
2023-03-27T12:20:20.862Z,7.20
2023-03-27T12:22:48.626Z,7.70
2023-03-27T12:25:17.104Z,9.60
2023-03-27T12:27:45.077Z,9.90
2023-03-27T12:30:12.831Z,12.40
2023-03-27T12:32:40.818Z,12.60
2023-03-27T12:35:08.559Z,11.10
2023-03-27T12:37:36.224Z,12.50
2023-03-27T12:40:10.645Z,9.30
2023-03-27T12:42:43.640Z,12.70
2023-03-27T12:45:12.216Z,12.10
2023-03-27T12:47:39.910Z,10.20
2023-03-27T12:50:07.737Z,12.40
2023-03-27T12:52:35.400Z,10.90
2023-03-27T12:55:03.068Z,11.40
2023-03-27T12:57:31.092Z,11.00
2023-03-27T12:59:59.407Z,9.20
2023-03-27T13:02:27.403Z,10.30
2023-03-27T13:04:55.354Z,7.90
2023-03-27T13:07:23.528Z,9.20
2023-03-27T13:09:53.043Z,10.50
2023-03-27T13:12:20.691Z,9.30
2023-03-27T13:14:49.074Z,9.10
2023-03-27T13:17:16.737Z,9.70
2023-03-27T13:19:44.396Z,9.50
2023-03-27T13:22:12.130Z,8.30
2023-03-27T13:24:40.230Z,11.70
2023-03-27T13:27:07.998Z,8.90
2023-03-27T13:29:36.170Z,9.00
2023-03-27T13:32:03.930Z,7.30
2023-03-27T13:34:33.005Z,9.50
2023-03-27T13:37:06.032Z,9.50
2023-03-27T13:39:34.699Z,8.90
2023-03-27T13:42:02.752Z,9.00
2023-03-27T13:44:30.552Z,8.20
2023-03-27T13:46:58.233Z,7.80
2023-03-27T13:49:26.064Z,8.00
2023-03-27T13:51:53.727Z,6.70
2023-03-27T13:54:21.387Z,6.40
2023-03-27T13:56:49.177Z,5.50
2023-03-27T13:59:16.914Z,5.10
2023-03-27T14:01:44.659Z,5.10
2023-03-27T14:04:12.382Z,5.50
2023-03-27T14:06:40.216Z,4.60
2023-03-27T14:09:08.172Z,6.10
2023-03-27T14:11:37.806Z,4.90
2023-03-27T14:14:06.988Z,5.30
2023-03-27T14:16:34.924Z,5.70
2023-03-27T14:19:02.818Z,4.90
2023-03-27T14:21:38.514Z,4.80
2023-03-27T14:24:06.954Z,5.80
2023-03-27T14:26:36.244Z,4.10
2023-03-27T14:29:04.008Z,3.50
2023-03-27T14:31:35.687Z,5.10
2023-03-27T14:36:34.171Z,4.20
2023-03-27T14:39:02.540Z,5.10
2023-03-27T14:41:31.534Z,8.30
2023-03-27T14:43:59.194Z,17.20
2023-03-27T14:46:27.960Z,5.70
2023-03-27T14:48:57.079Z,5.40
2023-03-27T14:51:35.183Z,5.10
2023-03-27T14:54:02.851Z,4.60
2023-03-27T14:56:31.022Z,4.10
2023-03-27T14:58:58.682Z,5.00
2023-03-27T15:01:26.499Z,5.80
2023-03-27T15:03:54.302Z,6.60
2023-03-27T15:06:25.970Z,5.60
2023-03-27T15:08:53.832Z,4.00
2023-03-27T15:11:21.959Z,5.40
2023-03-27T15:13:49.681Z,5.90
2023-03-27T15:16:17.462Z,7.30
2023-03-27T15:18:45.203Z,4.50
2023-03-27T15:21:14.612Z,6.00
2023-03-27T15:23:42.669Z,6.30
2023-03-27T15:26:10.436Z,9.80
2023-03-27T15:28:38.316Z,13.10
2023-03-27T15:31:05.999Z,17.70
2023-03-27T15:33:35.366Z,15.80
2023-03-27T15:36:03.933Z,7.60
2023-03-27T15:38:31.821Z,9.50
2023-03-27T15:40:59.598Z,7.60
2023-03-27T15:43:27.344Z,5.50
2023-03-27T15:45:55.174Z,4.60
2023-03-27T15:48:23.485Z,4.60
2023-03-27T15:50:51.247Z,5.90
2023-03-27T15:53:18.910Z,5.60
2023-03-27T15:55:55.577Z,6.30
2023-03-27T15:58:23.449Z,10.20
2023-03-27T16:00:51.622Z,8.40
2023-03-27T16:03:19.349Z,15.80
2023-03-27T16:05:47.353Z,6.60
2023-03-27T16:08:15.016Z,6.10
2023-03-27T16:10:42.676Z,5.50
2023-03-27T16:13:10.617Z,6.70
2023-03-27T16:15:38.717Z,6.40
2023-03-27T16:18:07.095Z,5.70
2023-03-27T16:20:34.862Z,6.10
2023-03-27T16:23:04.308Z,4.70
2023-03-27T16:25:32.127Z,3.90
2023-03-27T16:27:59.898Z,4.20
2023-03-27T16:30:27.666Z,4.20
2023-03-27T16:32:55.954Z,3.90
2023-03-27T16:35:23.715Z,3.40
2023-03-27T16:37:51.467Z,3.60
2023-03-27T16:40:19.227Z,4.20
2023-03-27T16:42:46.998Z,3.30
2023-03-27T16:45:14.935Z,3.50
2023-03-27T16:47:44.272Z,3.20
2023-03-27T16:50:12.595Z,3.10
2023-03-27T16:52:40.610Z,3.30
2023-03-27T16:55:08.271Z,2.70
2023-03-27T16:57:36.561Z,1.90
2023-03-27T17:00:05.514Z,3.10
2023-03-27T17:02:34.823Z,3.20
2023-03-27T17:05:03.273Z,3.30
2023-03-27T17:07:31.593Z,3.00
2023-03-27T17:09:59.354Z,3.10
2023-03-27T17:12:28.964Z,3.50
2023-03-27T17:14:56.627Z,6.70
2023-03-27T17:17:24.600Z,5.40
2023-03-27T17:19:52.362Z,3.80
2023-03-27T17:22:20.124Z,3.00
2023-03-27T17:24:56.262Z,4.80
2023-03-27T17:27:26.671Z,4.50
2023-03-27T17:29:56.352Z,4.60
2023-03-27T17:32:24.466Z,5.30
2023-03-27T17:34:52.415Z,3.20
2023-03-27T17:37:20.122Z,2.60
2023-03-27T17:39:47.803Z,2.50
2023-03-27T17:42:15.551Z,3.40
2023-03-27T17:44:45.482Z,6.00
2023-03-27T17:47:13.436Z,6.30
2023-03-27T17:49:43.392Z,4.60
2023-03-27T17:52:12.320Z,4.80
2023-03-27T17:54:40.425Z,3.40
2023-03-27T17:57:08.369Z,4.80
2023-03-27T17:59:36.764Z,5.80
2023-03-27T18:02:04.740Z,5.30
2023-03-27T18:04:33.413Z,4.10
2023-03-27T18:07:01.385Z,4.60
2023-03-27T18:09:29.249Z,4.80
2023-03-27T18:11:56.911Z,5.20
2023-03-27T18:14:24.569Z,4.40
2023-03-27T18:16:52.336Z,4.60
2023-03-27T18:19:20.003Z,3.70
2023-03-27T18:21:47.785Z,3.10
2023-03-27T18:24:15.934Z,4.50
2023-03-27T18:26:43.600Z,3.80
2023-03-27T18:29:11.372Z,4.60
2023-03-27T18:31:39.034Z,5.00
2023-03-27T18:34:07.311Z,3.50
2023-03-27T18:36:35.164Z,4.10
2023-03-27T18:39:04.444Z,3.80
2023-03-27T18:41:32.124Z,5.50
2023-03-27T18:43:59.791Z,4.40
2023-03-27T18:46:27.498Z,5.30
2023-03-27T18:48:55.525Z,4.50
2023-03-27T18:51:24.099Z,3.40
2023-03-27T18:53:51.767Z,3.30
2023-03-27T18:56:19.637Z,4.00
2023-03-27T18:58:47.497Z,4.00
2023-03-27T19:01:15.320Z,3.70
2023-03-27T19:03:43.126Z,3.90
2023-03-27T19:06:12.021Z,5.00
2023-03-27T19:08:42.165Z,4.70
2023-03-27T19:11:10.006Z,4.20
2023-03-27T19:13:37.765Z,3.90
2023-03-27T19:16:14.279Z,5.10
2023-03-27T19:18:43.340Z,3.60
2023-03-27T19:21:11.097Z,4.00
2023-03-27T19:23:38.870Z,3.20
2023-03-27T19:26:06.622Z,3.20
2023-03-27T19:28:34.300Z,3.40
2023-03-27T19:31:01.995Z,3.80
2023-03-27T19:33:29.819Z,5.30
2023-03-27T19:35:57.511Z,4.40
2023-03-27T19:38:25.650Z,5.10
2023-03-27T19:40:53.308Z,4.30
2023-03-27T19:43:21.832Z,3.70
2023-03-27T19:45:49.562Z,3.50
2023-03-27T19:48:18.547Z,3.40
2023-03-27T19:50:46.412Z,3.10
2023-03-27T19:53:14.282Z,3.40
2023-03-27T19:55:47.376Z,2.90
2023-03-27T19:58:15.338Z,3.20
2023-03-27T20:00:44.642Z,3.20
2023-03-27T20:03:16.757Z,2.40
2023-03-27T20:05:44.708Z,4.30
2023-03-27T20:08:12.436Z,5.30
2023-03-27T20:10:40.507Z,4.60
2023-03-27T20:13:08.284Z,3.70
2023-03-27T20:15:36.273Z,4.30
2023-03-27T20:18:05.005Z,3.30
2023-03-27T20:20:33.508Z,5.30
2023-03-27T20:23:01.789Z,4.90
2023-03-27T20:25:33.875Z,4.70
2023-03-27T20:28:01.715Z,4.00
2023-03-27T20:30:29.389Z,4.00
2023-03-27T20:32:57.166Z,2.90
2023-03-27T20:35:25.246Z,2.70
2023-03-27T20:37:56.493Z,2.60
2023-03-27T20:40:24.325Z,2.80
2023-03-27T20:43:04.180Z,3.20
2023-03-27T20:45:31.840Z,3.60
2023-03-27T20:48:04.308Z,2.90
2023-03-27T20:50:35.896Z,3.20
2023-03-27T20:53:04.781Z,3.00
2023-03-27T20:55:39.360Z,2.40
2023-03-27T20:58:09.204Z,3.00
2023-03-27T21:00:36.973Z,4.50
2023-03-27T21:03:04.808Z,4.20
2023-03-27T21:05:32.923Z,3.60
2023-03-27T21:08:00.566Z,2.80
2023-03-27T21:10:28.316Z,3.30
2023-03-27T21:12:56.905Z,2.30
2023-03-27T21:15:24.683Z,2.70
2023-03-27T21:17:52.450Z,2.10
2023-03-27T21:20:20.198Z,3.30
2023-03-27T21:22:52.838Z,5.40
2023-03-27T21:25:21.265Z,3.30
2023-03-27T21:27:49.015Z,3.00
2023-03-27T21:30:17.298Z,2.40
2023-03-27T21:32:46.008Z,2.40
2023-03-27T21:35:13.847Z,3.00
2023-03-27T21:37:41.818Z,2.60
2023-03-27T21:40:09.584Z,2.70
2023-03-27T21:42:37.345Z,2.40
2023-03-27T21:45:05.120Z,3.10
2023-03-27T21:47:46.587Z,3.60
2023-03-27T21:50:15.488Z,2.80
2023-03-27T21:52:43.246Z,2.30
2023-03-27T21:55:11.209Z,2.80
2023-03-27T21:57:38.878Z,3.60
2023-03-27T22:00:06.540Z,2.10
2023-03-27T22:02:34.215Z,2.20
2023-03-27T22:05:02.425Z,2.30
2023-03-27T22:07:30.345Z,1.80
2023-03-27T22:09:58.106Z,2.30
2023-03-27T22:12:26.080Z,2.30
2023-03-27T22:14:53.736Z,1.60
2023-03-27T22:17:21.911Z,2.40
2023-03-27T22:19:49.571Z,2.10
2023-03-27T22:22:17.336Z,1.90
2023-03-27T22:24:45.099Z,2.40
2023-03-27T22:27:12.862Z,2.40
2023-03-27T22:29:40.522Z,2.20
2023-03-27T22:32:08.287Z,1.80
2023-03-27T22:34:36.154Z,2.10
2023-03-27T22:37:03.915Z,1.80
2023-03-27T22:39:31.783Z,1.90
2023-03-27T22:41:59.451Z,1.80
2023-03-27T22:44:27.211Z,1.90
2023-03-27T22:46:55.015Z,2.40
2023-03-27T22:49:22.839Z,2.20
2023-03-27T22:51:50.499Z,2.40
2023-03-27T22:54:18.875Z,2.60
2023-03-27T22:56:47.127Z,2.20
2023-03-27T22:59:14.847Z,2.00
2023-03-27T23:01:42.645Z,2.40
2023-03-27T23:04:10.683Z,2.50
2023-03-27T23:06:38.621Z,2.70
2023-03-27T23:09:06.489Z,2.50
2023-03-27T23:11:34.150Z,2.50
2023-03-27T23:14:01.917Z,2.30
2023-03-27T23:16:29.806Z,2.40
2023-03-27T23:18:57.547Z,2.60
2023-03-27T23:21:25.514Z,2.30
2023-03-27T23:23:53.278Z,2.80
2023-03-27T23:26:21.451Z,3.10
2023-03-27T23:28:49.215Z,2.50
2023-03-27T23:31:17.170Z,3.10
2023-03-27T23:33:45.057Z,3.20
2023-03-27T23:36:12.838Z,2.80
2023-03-27T23:38:41.603Z,2.60
2023-03-27T23:41:09.270Z,3.70
2023-03-27T23:43:37.029Z,2.80
2023-03-27T23:46:05.755Z,2.70
2023-03-27T23:48:33.577Z,2.60
2023-03-27T23:51:01.546Z,3.30
2023-03-27T23:53:29.321Z,3.10
2023-03-27T23:55:57.128Z,2.80
2023-03-27T23:58:24.841Z,2.70
